createdAt,value
2023-04-09T00:00:50.721Z,64.39
2023-04-09T00:01:50.772Z,64.29
2023-04-09T00:02:50.825Z,64.70
2023-04-09T00:03:50.759Z,64.39
2023-04-09T00:04:50.700Z,64.80
2023-04-09T00:05:55.686Z,64.39
2023-04-09T00:06:50.665Z,64.70
2023-04-09T00:07:50.646Z,64.70
2023-04-09T00:08:50.925Z,65.31
2023-04-09T00:09:50.631Z,64.70
2023-04-09T00:10:50.606Z,65.01
2023-04-09T00:11:50.626Z,65.31
2023-04-09T00:12:50.586Z,64.80
2023-04-09T00:13:50.574Z,65.11
2023-04-09T00:14:50.567Z,64.90
2023-04-09T00:15:50.701Z,65.11
2023-04-09T00:16:55.582Z,65.62
2023-04-09T00:17:50.630Z,65.75
2023-04-09T00:18:50.893Z,65.21
2023-04-09T00:19:50.543Z,65.75
2023-04-09T00:20:50.498Z,65.24
2023-04-09T00:21:50.505Z,65.55
2023-04-09T00:22:50.470Z,65.45
2023-04-09T00:23:50.461Z,65.75
2023-04-09T00:24:50.448Z,65.75
2023-04-09T00:25:50.439Z,66.37
2023-04-09T00:26:50.442Z,66.37
2023-04-09T00:27:55.448Z,66.16
2023-04-09T00:28:50.607Z,66.37
2023-04-09T00:29:50.396Z,65.86
2023-04-09T00:30:50.386Z,65.86
2023-04-09T00:31:50.425Z,65.78
2023-04-09T00:32:50.381Z,66.27
2023-04-09T00:33:50.354Z,65.75
2023-04-09T00:34:50.334Z,65.75
2023-04-09T00:35:50.374Z,66.57
2023-04-09T00:36:50.351Z,65.99
2023-04-09T00:37:50.305Z,65.86
2023-04-09T00:38:55.312Z,66.09
2023-04-09T00:39:50.288Z,65.75
2023-04-09T00:40:50.269Z,65.86
2023-04-09T00:41:50.274Z,66.06
2023-04-09T00:42:50.268Z,65.86
2023-04-09T00:43:50.273Z,66.47
2023-04-09T00:44:50.237Z,66.06
2023-04-09T00:45:50.239Z,65.86
2023-04-09T00:46:50.215Z,65.96
2023-04-09T00:47:50.226Z,66.27
2023-04-09T00:48:50.503Z,66.09
2023-04-09T00:49:55.206Z,65.89
2023-04-09T00:50:50.169Z,65.89
2023-04-09T00:51:50.161Z,65.99
2023-04-09T00:52:50.135Z,66.60
2023-04-09T00:53:50.133Z,66.91
2023-04-09T00:54:50.108Z,67.11
2023-04-09T00:55:50.104Z,66.91
2023-04-09T00:56:50.099Z,67.02
2023-04-09T00:57:50.084Z,66.71
2023-04-09T00:58:50.316Z,66.81
2023-04-09T00:59:50.071Z,66.81
2023-04-09T01:00:55.087Z,67.02
2023-04-09T01:01:50.043Z,67.43
2023-04-09T01:02:50.193Z,67.11
2023-04-09T01:03:50.123Z,67.02
2023-04-09T01:04:49.999Z,67.11
2023-04-09T01:05:49.984Z,67.94
2023-04-09T01:06:49.979Z,68.14
2023-04-09T01:07:49.969Z,67.63
2023-04-09T01:08:50.333Z,68.04
2023-04-09T01:09:49.948Z,67.43
2023-04-09T01:10:49.936Z,67.94
2023-04-09T01:11:54.946Z,67.94
2023-04-09T01:12:49.901Z,67.52
2023-04-09T01:13:49.893Z,67.25
2023-04-09T01:14:49.907Z,67.66
2023-04-09T01:15:49.888Z,67.83
2023-04-09T01:16:49.920Z,67.56
2023-04-09T01:17:49.887Z,67.25
2023-04-09T01:18:50.245Z,67.66
2023-04-09T01:19:49.847Z,67.86
2023-04-09T01:20:49.813Z,68.24
2023-04-09T01:21:49.805Z,67.56
2023-04-09T01:22:54.820Z,68.07
2023-04-09T01:23:49.775Z,68.07
2023-04-09T01:24:49.764Z,68.07
2023-04-09T01:25:49.754Z,68.27
2023-04-09T01:26:49.765Z,68.07
2023-04-09T01:27:49.769Z,68.79
2023-04-09T01:28:49.949Z,68.38
2023-04-09T01:29:49.705Z,68.17
2023-04-09T01:30:49.712Z,68.07
2023-04-09T01:31:49.690Z,68.68
2023-04-09T01:32:49.745Z,68.92
2023-04-09T01:33:54.701Z,68.27
2023-04-09T01:34:49.650Z,68.17
2023-04-09T01:35:49.671Z,68.68
2023-04-09T01:36:49.633Z,68.89
2023-04-09T01:37:49.627Z,68.68
2023-04-09T01:38:49.760Z,68.68
2023-04-09T01:39:49.602Z,68.07
2023-04-09T01:40:49.582Z,68.27
2023-04-09T01:41:49.585Z,68.27
2023-04-09T01:42:49.580Z,68.89
2023-04-09T01:43:49.553Z,68.89
2023-04-09T01:44:54.560Z,68.89
2023-04-09T01:45:49.578Z,68.59
2023-04-09T01:46:49.517Z,68.51
2023-04-09T01:47:49.584Z,68.82
2023-04-09T01:48:49.675Z,68.51
2023-04-09T01:49:49.486Z,69.23
2023-04-09T01:50:49.486Z,69.13
2023-04-09T01:51:49.491Z,69.23
2023-04-09T01:52:49.456Z,69.13
2023-04-09T01:53:49.459Z,69.13
2023-04-09T01:54:49.423Z,68.82
2023-04-09T01:55:54.436Z,68.92
2023-04-09T01:56:49.403Z,69.43
2023-04-09T01:57:49.447Z,69.33
2023-04-09T01:58:49.474Z,68.92
2023-04-09T01:59:49.377Z,69.54
2023-04-09T02:00:49.378Z,69.33
2023-04-09T02:01:49.648Z,69.23
2023-04-09T02:02:49.441Z,69.02
2023-04-09T02:03:49.471Z,69.43
2023-04-09T02:04:49.335Z,69.43
2023-04-09T02:05:49.301Z,69.33
2023-04-09T02:06:54.330Z,69.54
2023-04-09T02:07:49.281Z,69.13
2023-04-09T02:08:49.368Z,69.54
2023-04-09T02:09:49.260Z,69.43
2023-04-09T02:10:49.242Z,69.74
2023-04-09T02:11:49.233Z,69.84
2023-04-09T02:12:49.225Z,70.15
2023-04-09T02:13:49.233Z,69.84
2023-04-09T02:14:49.212Z,70.50
2023-04-09T02:15:49.264Z,69.95
2023-04-09T02:16:49.179Z,69.74
2023-04-09T02:17:54.281Z,69.64
2023-04-09T02:18:49.186Z,69.84
2023-04-09T02:19:49.143Z,69.43
2023-04-09T02:20:49.129Z,69.84
2023-04-09T02:21:49.137Z,69.84
2023-04-09T02:22:49.127Z,69.98
2023-04-09T02:23:49.122Z,70.50
2023-04-09T02:24:49.131Z,70.46
2023-04-09T02:25:49.076Z,70.39
2023-04-09T02:26:49.069Z,70.70
2023-04-09T02:27:49.061Z,70.60
2023-04-09T02:28:54.437Z,70.05
2023-04-09T02:29:49.034Z,70.05
2023-04-09T02:30:49.028Z,70.05
2023-04-09T02:31:49.013Z,70.26
2023-04-09T02:32:49.023Z,70.29
2023-04-09T02:33:48.998Z,70.60
2023-04-09T02:34:48.973Z,70.39
2023-04-09T02:35:48.985Z,70.80
2023-04-09T02:36:48.962Z,70.90
2023-04-09T02:37:48.936Z,70.50
2023-04-09T02:38:48.997Z,71.21
2023-04-09T02:39:53.951Z,70.90
2023-04-09T02:40:48.918Z,70.77
2023-04-09T02:41:48.917Z,70.67
2023-04-09T02:42:48.891Z,70.60
2023-04-09T02:43:48.894Z,70.67
2023-04-09T02:44:48.877Z,70.46
2023-04-09T02:45:48.871Z,70.46
2023-04-09T02:46:48.966Z,70.15
2023-04-09T02:47:48.900Z,70.36
2023-04-09T02:48:48.858Z,70.05
2023-04-09T02:49:48.807Z,70.46
2023-04-09T02:50:53.828Z,70.56
2023-04-09T02:51:48.775Z,70.08
2023-04-09T02:52:48.774Z,70.29
2023-04-09T02:53:48.761Z,69.95
2023-04-09T02:54:48.778Z,70.26
2023-04-09T02:55:48.734Z,70.50
2023-04-09T02:56:48.746Z,70.46
2023-04-09T02:57:48.716Z,70.05
2023-04-09T02:58:48.707Z,69.64
2023-04-09T02:59:48.697Z,68.85
2023-04-09T03:00:48.677Z,69.78
2023-04-09T03:01:53.709Z,69.98
2023-04-09T03:02:48.725Z,70.39
2023-04-09T03:03:48.775Z,70.08
2023-04-09T03:04:48.651Z,70.08
2023-04-09T03:05:48.628Z,70.50
2023-04-09T03:06:48.611Z,70.50
2023-04-09T03:07:48.598Z,70.39
2023-04-09T03:08:48.638Z,70.60
2023-04-09T03:09:48.582Z,70.18
2023-04-09T03:10:48.587Z,70.50
2023-04-09T03:11:48.554Z,70.50
2023-04-09T03:12:53.568Z,70.39
2023-04-09T03:13:48.528Z,70.80
2023-04-09T03:14:48.529Z,70.50
2023-04-09T03:15:48.556Z,70.39
2023-04-09T03:16:48.500Z,70.39
2023-04-09T03:17:48.521Z,70.80
2023-04-09T03:18:48.472Z,70.90
2023-04-09T03:19:48.479Z,70.94
2023-04-09T03:20:48.458Z,71.04
2023-04-09T03:21:48.442Z,70.94
2023-04-09T03:22:48.439Z,71.35
2023-04-09T03:23:53.437Z,71.14
2023-04-09T03:24:48.415Z,71.25
2023-04-09T03:25:48.393Z,71.14
2023-04-09T03:26:48.413Z,71.25
2023-04-09T03:27:48.398Z,70.84
2023-04-09T03:28:48.382Z,70.94
2023-04-09T03:29:48.362Z,71.14
2023-04-09T03:30:48.341Z,70.94
2023-04-09T03:31:48.325Z,70.94
2023-04-09T03:32:48.385Z,71.59
2023-04-09T03:33:48.309Z,72.00
2023-04-09T03:34:53.334Z,72.68
2023-04-09T03:35:48.351Z,72.10
2023-04-09T03:36:48.279Z,72.17
2023-04-09T03:37:48.263Z,72.61
2023-04-09T03:38:48.262Z,72.51
2023-04-09T03:39:48.255Z,72.51
2023-04-09T03:40:48.234Z,72.82
2023-04-09T03:41:48.215Z,72.82
2023-04-09T03:42:48.246Z,72.61
2023-04-09T03:43:48.193Z,72.72
2023-04-09T03:44:48.202Z,72.82
2023-04-09T03:45:53.204Z,72.61
2023-04-09T03:46:48.213Z,72.51
2023-04-09T03:47:48.152Z,72.61
2023-04-09T03:48:48.132Z,72.72
2023-04-09T03:49:48.138Z,72.51
2023-04-09T03:50:48.114Z,72.82
2023-04-09T03:51:48.106Z,72.72
2023-04-09T03:52:48.104Z,72.82
2023-04-09T03:53:48.081Z,72.61
2023-04-09T03:54:48.078Z,72.72
2023-04-09T03:55:48.060Z,72.51
2023-04-09T03:56:53.063Z,73.33
2023-04-09T03:57:48.037Z,73.23
2023-04-09T03:58:48.052Z,73.33
2023-04-09T03:59:48.024Z,72.96
2023-04-09T04:00:48.014Z,73.33
2023-04-09T04:01:48.067Z,73.23
2023-04-09T04:02:48.062Z,73.85
2023-04-09T04:03:48.306Z,73.78
2023-04-09T04:04:48.133Z,73.44
2023-04-09T04:05:47.939Z,72.85
2023-04-09T04:06:47.924Z,73.68
2023-04-09T04:07:52.939Z,73.23
2023-04-09T04:08:47.901Z,73.16
2023-04-09T04:09:47.902Z,73.54
2023-04-09T04:10:47.905Z,73.06
2023-04-09T04:11:47.889Z,73.16
2023-04-09T04:12:47.939Z,73.06
2023-04-09T04:13:47.857Z,73.06
2023-04-09T04:14:47.862Z,73.27
2023-04-09T04:15:47.844Z,72.96
2023-04-09T04:16:47.826Z,72.96
2023-04-09T04:17:47.828Z,73.06
2023-04-09T04:18:53.044Z,73.16
2023-04-09T04:19:47.781Z,73.88
2023-04-09T04:20:47.786Z,73.47
2023-04-09T04:21:47.760Z,73.68
2023-04-09T04:22:47.757Z,73.47
2023-04-09T04:23:47.762Z,73.47
2023-04-09T04:24:47.725Z,73.50
2023-04-09T04:25:47.721Z,73.40
2023-04-09T04:26:47.700Z,73.36
2023-04-09T04:27:47.699Z,74.02
2023-04-09T04:28:47.708Z,74.43
2023-04-09T04:29:52.717Z,74.02
2023-04-09T04:30:47.654Z,74.12
2023-04-09T04:31:47.669Z,74.02
2023-04-09T04:32:47.669Z,74.12
2023-04-09T04:33:47.624Z,74.43
2023-04-09T04:34:47.618Z,74.02
2023-04-09T04:35:47.619Z,74.95
2023-04-09T04:36:47.583Z,74.70
2023-04-09T04:37:47.575Z,74.43
2023-04-09T04:38:47.563Z,74.43
2023-04-09T04:39:47.552Z,74.12
2023-04-09T04:40:52.587Z,74.29
2023-04-09T04:41:47.530Z,74.29
2023-04-09T04:42:47.543Z,74.43
2023-04-09T04:43:47.529Z,74.74
2023-04-09T04:44:47.497Z,74.74
2023-04-09T04:45:47.536Z,74.95
2023-04-09T04:46:47.513Z,75.46
2023-04-09T04:47:47.489Z,75.46
2023-04-09T04:48:47.447Z,75.04
2023-04-09T04:49:47.444Z,74.74
2023-04-09T04:50:47.436Z,75.15
2023-04-09T04:51:52.440Z,75.35
2023-04-09T04:52:47.447Z,75.04
2023-04-09T04:53:47.398Z,74.84
2023-04-09T04:54:47.388Z,75.04
2023-04-09T04:55:47.414Z,74.95
2023-04-09T04:56:47.368Z,74.95
2023-04-09T04:57:47.350Z,75.15
2023-04-09T04:58:47.347Z,75.67
2023-04-09T04:59:47.328Z,75.46
2023-04-09T05:00:47.393Z,75.46
2023-04-09T05:01:47.360Z,75.46
2023-04-09T05:02:52.405Z,75.46
2023-04-09T05:03:47.438Z,75.56
2023-04-09T05:04:47.295Z,75.67
2023-04-09T05:05:47.265Z,75.56
2023-04-09T05:06:47.247Z,75.25
2023-04-09T05:07:47.241Z,75.15
2023-04-09T05:08:47.233Z,75.25
2023-04-09T05:09:47.222Z,74.95
2023-04-09T05:10:47.225Z,75.46
2023-04-09T05:11:47.195Z,75.46
2023-04-09T05:12:47.176Z,75.35
2023-04-09T05:13:52.201Z,74.95
2023-04-09T05:14:47.166Z,74.95
2023-04-09T05:15:47.171Z,75.04
2023-04-09T05:16:47.171Z,75.25
2023-04-09T05:17:47.179Z,75.35
2023-04-09T05:18:47.116Z,74.84
2023-04-09T05:19:47.104Z,75.25
2023-04-09T05:20:47.123Z,75.04
2023-04-09T05:21:47.506Z,74.84
2023-04-09T05:22:47.071Z,75.15
2023-04-09T05:23:47.059Z,74.95
2023-04-09T05:24:52.076Z,74.95
2023-04-09T05:25:47.049Z,75.32
2023-04-09T05:26:47.019Z,75.04
2023-04-09T05:27:47.015Z,75.21
2023-04-09T05:28:47.000Z,75.01
2023-04-09T05:29:46.989Z,75.46
2023-04-09T05:30:47.005Z,75.12
2023-04-09T05:31:46.967Z,74.29
2023-04-09T05:32:46.967Z,74.50
2023-04-09T05:33:46.962Z,75.21
2023-04-09T05:34:46.935Z,74.80
2023-04-09T05:35:51.975Z,75.21
2023-04-09T05:36:46.908Z,75.21
2023-04-09T05:37:46.911Z,74.40
2023-04-09T05:38:46.903Z,75.15
2023-04-09T05:39:46.883Z,75.12
2023-04-09T05:40:46.877Z,74.84
2023-04-09T05:41:46.861Z,75.04
2023-04-09T05:42:46.839Z,74.91
2023-04-09T05:43:46.829Z,74.60
2023-04-09T05:44:46.824Z,74.67
2023-04-09T05:45:46.831Z,74.57
2023-04-09T05:46:51.827Z,74.46
2023-04-09T05:47:46.794Z,73.85
2023-04-09T05:48:46.778Z,72.99
2023-04-09T05:49:46.782Z,72.89
2023-04-09T05:50:54.642Z,73.40
2023-04-09T05:51:46.752Z,73.40
2023-04-09T05:52:46.729Z,73.30
2023-04-09T05:53:46.719Z,73.30
2023-04-09T05:54:46.706Z,73.19
2023-04-09T05:55:46.709Z,72.92
2023-04-09T05:56:46.700Z,73.23
2023-04-09T05:57:51.696Z,74.15
2023-04-09T05:58:46.666Z,73.85
2023-04-09T05:59:46.656Z,73.02
2023-04-09T06:00:46.638Z,73.13
2023-04-09T06:01:46.678Z,73.85
2023-04-09T06:02:46.723Z,73.95
2023-04-09T06:03:46.879Z,72.92
2023-04-09T06:04:46.686Z,73.02
2023-04-09T06:05:46.602Z,73.13
2023-04-09T06:06:46.581Z,73.33
2023-04-09T06:07:46.560Z,73.02
2023-04-09T06:08:51.588Z,73.02
2023-04-09T06:09:46.537Z,73.02
2023-04-09T06:10:46.550Z,72.92
2023-04-09T06:11:46.529Z,73.02
2023-04-09T06:12:46.513Z,73.85
2023-04-09T06:13:46.510Z,73.23
2023-04-09T06:14:46.495Z,72.99
2023-04-09T06:15:46.493Z,73.10
2023-04-09T06:16:46.467Z,73.10
2023-04-09T06:17:46.523Z,73.30
2023-04-09T06:18:46.439Z,73.30
2023-04-09T06:19:51.450Z,73.40
2023-04-09T06:20:46.419Z,73.40
2023-04-09T06:21:46.435Z,73.10
2023-04-09T06:22:46.401Z,73.30
2023-04-09T06:23:46.385Z,73.30
2023-04-09T06:24:46.367Z,73.30
2023-04-09T06:25:46.361Z,72.89
2023-04-09T06:26:46.370Z,73.10
2023-04-09T06:27:46.332Z,73.40
2023-04-09T06:28:46.321Z,73.47
2023-04-09T06:29:46.334Z,73.27
2023-04-09T06:30:51.404Z,72.65
2023-04-09T06:31:46.296Z,72.55
2023-04-09T06:32:54.355Z,72.85
2023-04-09T06:33:46.267Z,72.65
2023-04-09T06:34:46.252Z,72.85
2023-04-09T06:35:46.268Z,72.55
2023-04-09T06:36:46.236Z,72.55
2023-04-09T06:37:46.246Z,72.24
2023-04-09T06:38:46.219Z,72.44
2023-04-09T06:39:58.230Z,72.75
2023-04-09T06:40:46.184Z,72.65
2023-04-09T06:41:51.211Z,71.28
2023-04-09T06:42:46.158Z,71.18
2023-04-09T06:43:46.150Z,71.18
2023-04-09T06:44:46.144Z,71.69
2023-04-09T06:45:46.127Z,71.59
2023-04-09T06:46:46.122Z,71.08
2023-04-09T06:47:46.140Z,70.77
2023-04-09T06:48:46.089Z,70.94
2023-04-09T06:49:46.089Z,70.84
2023-04-09T06:50:46.089Z,70.09
2023-04-09T06:51:46.064Z,69.34
2023-04-09T06:52:51.097Z,68.08
2023-04-09T06:53:46.084Z,67.84
2023-04-09T06:54:46.023Z,67.54
2023-04-09T06:55:46.063Z,67.30
2023-04-09T06:56:46.008Z,66.45
2023-04-09T06:57:46.006Z,66.45
2023-04-09T06:58:45.982Z,65.60
2023-04-09T06:59:45.973Z,65.30
2023-04-09T07:00:45.956Z,65.19
2023-04-09T07:01:46.027Z,65.09
2023-04-09T07:02:46.156Z,64.86
2023-04-09T07:03:51.168Z,64.75
2023-04-09T07:04:45.988Z,64.89
2023-04-09T07:05:45.901Z,64.48
2023-04-09T07:06:45.886Z,64.65
2023-04-09T07:07:45.889Z,65.06
2023-04-09T07:08:45.886Z,64.89
2023-04-09T07:09:45.857Z,64.27
2023-04-09T07:10:45.843Z,64.55
2023-04-09T07:11:45.834Z,64.68
2023-04-09T07:12:45.837Z,64.89
2023-04-09T07:13:45.819Z,64.17
2023-04-09T07:14:50.825Z,64.27
2023-04-09T07:15:45.842Z,64.99
2023-04-09T07:16:45.783Z,64.99
2023-04-09T07:17:45.796Z,64.45
2023-04-09T07:18:45.755Z,64.14
2023-04-09T07:19:45.742Z,64.01
2023-04-09T07:20:45.758Z,64.22
2023-04-09T07:21:45.717Z,64.04
2023-04-09T07:22:45.714Z,64.99
2023-04-09T07:23:45.695Z,64.86
2023-04-09T07:24:45.709Z,65.47
2023-04-09T07:25:50.703Z,65.06
2023-04-09T07:26:45.667Z,64.86
2023-04-09T07:27:45.663Z,64.75
2023-04-09T07:28:45.636Z,63.93
2023-04-09T07:29:45.636Z,63.87
2023-04-09T07:30:45.611Z,63.19
2023-04-09T07:31:45.624Z,62.21
2023-04-09T07:32:45.689Z,61.34
2023-04-09T07:33:45.581Z,60.57
2023-04-09T07:34:45.565Z,59.80
2023-04-09T07:35:45.578Z,58.76
2023-04-09T07:36:50.565Z,57.51
2023-04-09T07:37:45.541Z,57.31
2023-04-09T07:38:45.526Z,57.03
2023-04-09T07:39:45.516Z,57.13
2023-04-09T07:40:45.527Z,57.84
2023-04-09T07:41:45.501Z,58.30
2023-04-09T07:42:45.492Z,59.01
2023-04-09T07:43:45.465Z,59.45
2023-04-09T07:44:45.459Z,59.38
2023-04-09T07:45:45.447Z,60.83
2023-04-09T07:46:45.478Z,61.50
2023-04-09T07:47:50.568Z,62.24
2023-04-09T07:48:47.183Z,62.07
2023-04-09T07:49:45.414Z,63.60
2023-04-09T07:50:45.405Z,63.16
2023-04-09T07:51:45.381Z,62.18
2023-04-09T07:52:45.363Z,61.11
2023-04-09T07:53:45.364Z,59.83
2023-04-09T07:54:45.350Z,57.87
2023-04-09T07:55:45.334Z,57.84
2023-04-09T07:56:45.341Z,56.39
2023-04-09T07:57:45.320Z,56.39
2023-04-09T07:58:50.575Z,56.73
2023-04-09T07:59:45.323Z,57.34
2023-04-09T08:00:45.312Z,56.73
2023-04-09T08:01:45.318Z,57.79
2023-04-09T08:02:45.493Z,58.74
2023-04-09T08:03:45.447Z,59.68
2023-04-09T08:04:45.397Z,59.81
2023-04-09T08:05:45.224Z,60.48
2023-04-09T08:06:45.229Z,61.50
2023-04-09T08:07:45.206Z,61.27
2023-04-09T08:08:45.195Z,61.16
2023-04-09T08:09:50.217Z,60.86
2023-04-09T08:10:45.167Z,61.07
2023-04-09T08:11:45.155Z,61.37
2023-04-09T08:12:45.165Z,60.83
2023-04-09T08:13:45.138Z,59.78
2023-04-09T08:14:45.119Z,59.86
2023-04-09T08:15:45.119Z,58.58
2023-04-09T08:16:45.167Z,57.79
2023-04-09T08:17:45.090Z,57.46
2023-04-09T08:18:45.088Z,56.70
2023-04-09T08:19:45.069Z,57.00
2023-04-09T08:20:50.073Z,56.37
2023-04-09T08:21:45.052Z,55.71
2023-04-09T08:22:45.026Z,55.10
2023-04-09T08:23:45.030Z,54.36
2023-04-09T08:24:45.004Z,53.40
2023-04-09T08:25:44.992Z,52.31
2023-04-09T08:26:44.984Z,50.87
2023-04-09T08:27:44.976Z,50.11
2023-04-09T08:28:44.993Z,51.88
2023-04-09T08:29:44.960Z,52.73
2023-04-09T08:30:44.964Z,54.21
2023-04-09T08:31:49.995Z,54.49
2023-04-09T08:32:44.944Z,53.67
2023-04-09T08:33:44.919Z,53.65
2023-04-09T08:34:44.893Z,51.90
2023-04-09T08:35:44.883Z,52.06
2023-04-09T08:36:44.876Z,50.74
2023-04-09T08:37:44.857Z,52.18
2023-04-09T08:38:44.849Z,52.31
2023-04-09T08:39:44.853Z,53.22
2023-04-09T08:40:44.821Z,53.02
2023-04-09T08:41:44.813Z,53.65
2023-04-09T08:42:49.825Z,53.63
2023-04-09T08:43:57.183Z,53.14
2023-04-09T08:44:44.815Z,53.32
2023-04-09T08:45:44.783Z,53.12
2023-04-09T08:46:44.776Z,53.34
2023-04-09T08:47:44.882Z,52.20
2023-04-09T08:48:44.751Z,52.66
2023-04-09T08:49:44.732Z,53.80
2023-04-09T08:50:44.713Z,54.21
2023-04-09T08:51:44.698Z,55.02
2023-04-09T08:52:44.690Z,54.79
2023-04-09T08:53:49.739Z,54.61
2023-04-09T08:54:44.700Z,54.90
2023-04-09T08:55:44.653Z,53.45
2023-04-09T08:56:44.643Z,53.42
2023-04-09T08:57:44.634Z,51.88
2023-04-09T08:58:44.623Z,50.74
2023-04-09T08:59:44.630Z,50.31
2023-04-09T09:00:44.620Z,50.76
2023-04-09T09:01:44.690Z,51.39
2023-04-09T09:02:44.687Z,52.94
2023-04-09T09:03:44.667Z,52.73
2023-04-09T09:04:49.582Z,52.76
2023-04-09T09:05:44.550Z,55.02
2023-04-09T09:06:44.530Z,54.69
2023-04-09T09:07:44.517Z,53.37
2023-04-09T09:08:44.509Z,54.05
2023-04-09T09:09:44.514Z,53.65
2023-04-09T09:10:44.488Z,53.70
2023-04-09T09:11:44.474Z,54.51
2023-04-09T09:12:44.461Z,55.12
2023-04-09T09:13:44.447Z,54.69
2023-04-09T09:14:44.436Z,53.96
2023-04-09T09:15:49.480Z,53.04
2023-04-09T09:16:44.582Z,52.92
2023-04-09T09:17:44.467Z,52.89
2023-04-09T09:18:44.423Z,51.32
2023-04-09T09:19:44.382Z,50.61
2023-04-09T09:20:44.379Z,51.02
2023-04-09T09:21:44.356Z,51.12
2023-04-09T09:22:44.346Z,50.54
2023-04-09T09:23:44.417Z,50.66
2023-04-09T09:24:44.327Z,52.66
2023-04-09T09:25:44.318Z,53.60
2023-04-09T09:26:49.327Z,53.14
2023-04-09T09:27:44.284Z,51.50
2023-04-09T09:28:44.279Z,52.15
2023-04-09T09:29:44.266Z,51.65
2023-04-09T09:30:44.318Z,52.40
2023-04-09T09:31:44.327Z,52.08
2023-04-09T09:32:44.316Z,51.65
2023-04-09T09:33:44.287Z,51.06
2023-04-09T09:34:44.261Z,49.84
2023-04-09T09:35:44.284Z,49.72
2023-04-09T09:36:44.296Z,49.69
2023-04-09T09:37:49.230Z,49.67
2023-04-09T09:38:44.177Z,49.27
2023-04-09T09:39:44.156Z,50.08
2023-04-09T09:40:44.158Z,49.04
2023-04-09T09:41:44.159Z,48.71
2023-04-09T09:42:44.124Z,49.04
2023-04-09T09:43:44.117Z,48.74
2023-04-09T09:44:44.106Z,48.18
2023-04-09T09:45:44.312Z,46.80
2023-04-09T09:46:44.099Z,45.95
2023-04-09T09:47:44.117Z,44.92
2023-04-09T09:48:49.093Z,44.07
2023-04-09T09:49:44.060Z,44.21
2023-04-09T09:50:44.044Z,46.62
2023-04-09T09:51:44.026Z,46.77
2023-04-09T09:52:44.011Z,47.67
2023-04-09T09:53:44.004Z,46.52
2023-04-09T09:54:44.034Z,45.89
2023-04-09T09:55:43.989Z,45.77
2023-04-09T09:56:43.971Z,45.18
2023-04-09T09:57:43.958Z,45.79
2023-04-09T09:58:43.952Z,45.23
2023-04-09T09:59:48.955Z,45.25
2023-04-09T10:00:43.950Z,46.63
2023-04-09T10:01:43.972Z,47.16
2023-04-09T10:02:43.970Z,47.18
2023-04-09T10:03:43.914Z,47.99
2023-04-09T10:04:43.897Z,48.60
2023-04-09T10:05:43.861Z,48.11
2023-04-09T10:06:43.900Z,49.36
2023-04-09T10:07:43.845Z,49.03
2023-04-09T10:08:43.827Z,49.03
2023-04-09T10:09:43.823Z,49.13
2023-04-09T10:10:48.849Z,49.76
2023-04-09T10:11:43.805Z,50.37
2023-04-09T10:12:43.804Z,51.31
2023-04-09T10:13:43.772Z,52.23
2023-04-09T10:14:43.779Z,52.15
2023-04-09T10:15:43.808Z,52.23
2023-04-09T10:16:43.751Z,51.49
2023-04-09T10:17:43.752Z,50.65
2023-04-09T10:18:43.758Z,50.93
2023-04-09T10:19:43.725Z,50.60
2023-04-09T10:20:43.696Z,49.69
2023-04-09T10:21:48.711Z,48.88
2023-04-09T10:22:43.702Z,50.18
2023-04-09T10:23:43.658Z,49.19
2023-04-09T10:24:43.672Z,49.16
2023-04-09T10:25:43.633Z,48.55
2023-04-09T10:26:43.632Z,48.15
2023-04-09T10:27:43.619Z,48.07
2023-04-09T10:28:43.601Z,49.01
2023-04-09T10:29:43.591Z,49.72
2023-04-09T10:30:43.611Z,50.76
2023-04-09T10:31:43.603Z,50.93
2023-04-09T10:32:48.618Z,51.87
2023-04-09T10:33:43.556Z,52.48
2023-04-09T10:34:43.539Z,52.25
2023-04-09T10:35:43.583Z,52.25
2023-04-09T10:36:43.524Z,51.44
2023-04-09T10:37:43.560Z,51.75
2023-04-09T10:38:43.486Z,51.34
2023-04-09T10:39:43.476Z,51.42
2023-04-09T10:40:43.465Z,51.11
2023-04-09T10:41:43.468Z,50.48
2023-04-09T10:42:43.452Z,51.11
2023-04-09T10:43:48.495Z,51.11
2023-04-09T10:44:43.418Z,52.43
2023-04-09T10:45:43.411Z,52.12
2023-04-09T10:46:43.487Z,52.00
2023-04-09T10:47:43.523Z,51.87
2023-04-09T10:48:43.378Z,50.96
2023-04-09T10:49:43.362Z,49.59
2023-04-09T10:50:43.401Z,48.63
2023-04-09T10:51:43.370Z,48.54
2023-04-09T10:52:43.332Z,47.92
2023-04-09T10:53:43.319Z,48.23
2023-04-09T10:54:48.343Z,48.21
2023-04-09T10:55:43.293Z,47.70
2023-04-09T10:56:43.316Z,47.90
2023-04-09T10:57:43.278Z,48.00
2023-04-09T10:58:43.295Z,47.52
2023-04-09T10:59:43.263Z,49.39
2023-04-09T11:00:43.241Z,49.29
2023-04-09T11:01:43.302Z,48.99
2023-04-09T11:02:43.347Z,48.25
2023-04-09T11:03:43.245Z,48.18
2023-04-09T11:04:43.230Z,47.14
2023-04-09T11:05:48.210Z,47.14
2023-04-09T11:06:43.175Z,48.05
2023-04-09T11:07:43.191Z,48.25
2023-04-09T11:08:43.189Z,48.18
2023-04-09T11:09:43.140Z,48.18
2023-04-09T11:10:43.127Z,49.49
2023-04-09T11:11:43.124Z,49.08
2023-04-09T11:12:43.129Z,49.06
2023-04-09T11:13:43.095Z,47.87
2023-04-09T11:14:43.116Z,47.54
2023-04-09T11:15:43.089Z,46.63
2023-04-09T11:16:48.159Z,47.24
2023-04-09T11:17:43.171Z,47.44
2023-04-09T11:18:43.036Z,47.95
2023-04-09T11:19:43.021Z,46.63
2023-04-09T11:20:43.052Z,47.67
2023-04-09T11:21:43.511Z,47.16
2023-04-09T11:22:42.999Z,46.67
2023-04-09T11:23:42.997Z,46.98
2023-04-09T11:24:42.976Z,46.27
2023-04-09T11:25:42.951Z,47.18
2023-04-09T11:26:42.960Z,47.20
2023-04-09T11:27:47.971Z,47.89
2023-04-09T11:28:42.917Z,47.79
2023-04-09T11:29:42.902Z,47.18
2023-04-09T11:30:42.904Z,47.30
2023-04-09T11:31:42.895Z,46.90
2023-04-09T11:32:42.958Z,46.70
2023-04-09T11:33:42.866Z,47.10
2023-04-09T11:34:42.849Z,47.02
2023-04-09T11:35:42.874Z,47.53
2023-04-09T11:36:42.828Z,48.22
2023-04-09T11:37:42.828Z,47.81
2023-04-09T11:38:47.847Z,47.91
2023-04-09T11:39:42.793Z,48.02
2023-04-09T11:40:42.785Z,47.91
2023-04-09T11:41:42.769Z,48.02
2023-04-09T11:42:42.759Z,46.80
2023-04-09T11:43:42.762Z,47.53
2023-04-09T11:44:42.735Z,47.25
2023-04-09T11:45:42.723Z,47.05
2023-04-09T11:46:42.732Z,46.86
2023-04-09T11:47:42.722Z,46.56
2023-04-09T11:48:42.703Z,46.66
2023-04-09T11:49:47.711Z,48.08
2023-04-09T11:50:42.674Z,47.88
2023-04-09T11:51:42.656Z,47.60
2023-04-09T11:52:42.673Z,48.28
2023-04-09T11:53:42.647Z,48.69
2023-04-09T11:54:42.645Z,48.19
2023-04-09T11:55:42.614Z,48.19
2023-04-09T11:56:42.609Z,47.88
2023-04-09T11:57:42.590Z,46.97
2023-04-09T11:58:42.592Z,47.45
2023-04-09T11:59:42.565Z,47.22
2023-04-09T12:00:47.574Z,47.71
2023-04-09T12:01:42.591Z,47.71
2023-04-09T12:02:42.708Z,47.71
2023-04-09T12:03:42.626Z,46.88
2023-04-09T12:04:42.702Z,46.57
2023-04-09T12:05:44.929Z,45.86
2023-04-09T12:06:42.492Z,46.47
2023-04-09T12:07:51.641Z,45.66
2023-04-09T12:08:42.486Z,45.76
2023-04-09T12:09:42.452Z,45.03
2023-04-09T12:10:42.473Z,46.14
2023-04-09T12:11:47.460Z,45.46
2023-04-09T12:12:42.423Z,45.68
2023-04-09T12:13:42.417Z,45.58
2023-04-09T12:14:42.407Z,46.11
2023-04-09T12:15:42.384Z,46.09
2023-04-09T12:16:42.455Z,46.19
2023-04-09T12:17:42.393Z,46.29
2023-04-09T12:18:42.435Z,46.29
2023-04-09T12:19:42.343Z,46.70
2023-04-09T12:20:42.352Z,46.59
2023-04-09T12:21:42.319Z,46.29
2023-04-09T12:22:47.329Z,46.09
2023-04-09T12:23:42.310Z,46.37
2023-04-09T12:24:42.285Z,45.13
2023-04-09T12:25:42.279Z,44.52
2023-04-09T12:26:42.288Z,44.52
2023-04-09T12:27:42.259Z,45.01
2023-04-09T12:28:42.263Z,42.78
2023-04-09T12:29:42.227Z,43.38
2023-04-09T12:30:42.214Z,43.49
2023-04-09T12:31:42.269Z,43.77
2023-04-09T12:32:42.263Z,41.85
2023-04-09T12:33:47.223Z,42.27
2023-04-09T12:34:42.168Z,42.07
2023-04-09T12:35:42.254Z,41.58
2023-04-09T12:36:42.153Z,41.88
2023-04-09T12:37:42.142Z,42.80
2023-04-09T12:38:42.131Z,40.97
2023-04-09T12:39:42.133Z,41.58
2023-04-09T12:40:42.103Z,41.48
2023-04-09T12:41:42.090Z,41.40
2023-04-09T12:42:42.103Z,41.11
2023-04-09T12:43:43.777Z,42.02
2023-04-09T12:44:47.086Z,42.54
2023-04-09T12:45:42.084Z,42.84
2023-04-09T12:46:42.036Z,42.41
2023-04-09T12:47:42.072Z,41.91
2023-04-09T12:48:42.022Z,41.93
2023-04-09T12:49:42.413Z,41.40
2023-04-09T12:50:41.988Z,40.63
2023-04-09T12:51:41.988Z,39.06
2023-04-09T12:52:41.967Z,38.80